createdAt,value
2023-12-09T00:01:10.964Z,96073.00
2023-12-09T00:05:14.516Z,96065.00
2023-12-09T00:09:20.179Z,96060.00
2023-12-09T00:13:23.456Z,96071.00
2023-12-09T00:17:27.384Z,96073.00
2023-12-09T00:21:30.784Z,96073.00
2023-12-09T00:25:35.261Z,96063.00
2023-12-09T00:29:38.318Z,96057.00
2023-12-09T00:33:41.609Z,96061.00
2023-12-09T00:37:44.876Z,96070.00
2023-12-09T00:41:49.378Z,96063.00
2023-12-09T00:45:52.473Z,96072.00
2023-12-09T00:49:55.623Z,96062.00
2023-12-09T00:53:58.734Z,96061.00
2023-12-09T00:58:03.198Z,96060.00
2023-12-09T01:02:06.438Z,96062.00
2023-12-09T01:06:09.742Z,96067.00
2023-12-09T01:10:13.020Z,96079.00
2023-12-09T01:14:17.833Z,96085.00
2023-12-09T01:18:20.967Z,96088.00
2023-12-09T01:22:24.136Z,96085.00
2023-12-09T01:26:27.260Z,96087.00
2023-12-09T01:30:31.783Z,96089.00
2023-12-09T01:34:35.739Z,96091.00
2023-12-09T01:38:38.839Z,96098.00
2023-12-09T01:42:43.212Z,96093.00
2023-12-09T01:46:47.891Z,96093.00
2023-12-09T01:50:51.950Z,96082.00
2023-12-09T01:54:55.229Z,96091.00
2023-12-09T01:58:58.310Z,96076.00
2023-12-09T02:03:03.056Z,96087.00
2023-12-09T02:07:06.355Z,96101.00
2023-12-09T02:11:17.426Z,96096.00
2023-12-09T02:15:28.327Z,96114.00
2023-12-09T02:19:33.877Z,96117.00
2023-12-09T02:23:38.330Z,96112.00
2023-12-09T02:27:48.774Z,96105.00
2023-12-09T02:31:57.177Z,96102.00
2023-12-09T02:36:03.576Z,96101.00
2023-12-09T02:40:11.341Z,96103.00
2023-12-09T02:44:14.930Z,96106.00
2023-12-09T02:48:18.116Z,96103.00
2023-12-09T02:52:21.287Z,96107.00
2023-12-09T02:56:25.687Z,96107.00
2023-12-09T03:00:28.785Z,96101.00
2023-12-09T03:04:32.424Z,96098.00
2023-12-09T03:08:36.144Z,96102.00
2023-12-09T03:12:40.678Z,96114.00
2023-12-09T03:16:43.909Z,96122.00
2023-12-09T03:20:47.039Z,96129.00
2023-12-09T03:24:50.210Z,96128.00
2023-12-09T03:28:57.754Z,96134.00
2023-12-09T03:33:00.988Z,96127.00
2023-12-09T03:37:04.110Z,96129.00
2023-12-09T03:41:08.241Z,96126.00
2023-12-09T03:45:13.365Z,96132.00
2023-12-09T03:49:16.573Z,96126.00
2023-12-09T03:53:19.938Z,96132.00
2023-12-09T03:57:22.970Z,96126.00
2023-12-09T04:01:27.661Z,96112.00
2023-12-09T04:05:31.003Z,96118.00
2023-12-09T04:09:34.261Z,96120.00
2023-12-09T04:13:37.417Z,96131.00
2023-12-09T04:17:43.005Z,96125.00
2023-12-09T04:21:46.070Z,96133.00
2023-12-09T04:25:49.196Z,96139.00
2023-12-09T04:29:52.404Z,96128.00
2023-12-09T04:33:57.469Z,96120.00
2023-12-09T04:38:00.698Z,96124.00
2023-12-09T04:42:05.523Z,96118.00
2023-12-09T04:46:08.675Z,96113.00
2023-12-09T04:50:13.324Z,96119.00
2023-12-09T04:54:16.742Z,96113.00
2023-12-09T04:58:19.865Z,96101.00
2023-12-09T05:02:22.903Z,96103.00
2023-12-09T05:06:27.375Z,96110.00
2023-12-09T05:10:30.605Z,96105.00
2023-12-09T05:14:33.790Z,96109.00
2023-12-09T05:18:37.021Z,96110.00
2023-12-09T05:22:41.687Z,96109.00
2023-12-09T05:26:45.001Z,96115.00
2023-12-09T05:30:48.477Z,96121.00
2023-12-09T05:34:51.581Z,96123.00
2023-12-09T05:38:56.091Z,96121.00
2023-12-09T05:42:59.335Z,96128.00
2023-12-09T05:47:02.342Z,96124.00
2023-12-09T05:51:05.995Z,96121.00
2023-12-09T05:55:10.980Z,96122.00
2023-12-09T05:59:15.450Z,96119.00
2023-12-09T06:03:18.485Z,96125.00
2023-12-09T06:07:21.569Z,96132.00
2023-12-09T06:11:26.322Z,96132.00
2023-12-09T06:15:29.544Z,96124.00
2023-12-09T06:19:32.646Z,96122.00
2023-12-09T06:23:35.707Z,96135.00
2023-12-09T06:27:40.173Z,96148.00
2023-12-09T06:31:43.263Z,96144.00
2023-12-09T06:35:46.517Z,96135.00
2023-12-09T06:39:50.280Z,96140.00
2023-12-09T06:43:54.729Z,96128.00
2023-12-09T06:47:57.894Z,96133.00
2023-12-09T06:52:01.023Z,96142.00
2023-12-09T06:56:04.054Z,96148.00
2023-12-09T07:00:10.165Z,96154.00
2023-12-09T07:04:15.430Z,96149.00
2023-12-09T07:08:18.710Z,96146.00
2023-12-09T07:12:21.802Z,96146.00
2023-12-09T07:16:26.210Z,96137.00
2023-12-09T07:20:29.526Z,96126.00
2023-12-09T07:24:32.685Z,96136.00
2023-12-09T07:28:36.264Z,96144.00
2023-12-09T07:32:40.849Z,96142.00
2023-12-09T07:36:44.008Z,96132.00
2023-12-09T07:40:47.764Z,96137.00
2023-12-09T07:44:51.386Z,96136.00
2023-12-09T07:48:55.955Z,96134.00
2023-12-09T07:52:59.038Z,96132.00
2023-12-09T07:57:02.114Z,96134.00
2023-12-09T08:01:08.012Z,96133.00
2023-12-09T08:05:14.665Z,96120.00
2023-12-09T08:09:17.983Z,96120.00
2023-12-09T08:13:21.082Z,96127.00
2023-12-09T08:17:24.247Z,96118.00
2023-12-09T08:21:28.867Z,96121.00
2023-12-09T08:25:32.014Z,96110.00
2023-12-09T08:29:35.110Z,96121.00
2023-12-09T08:33:38.320Z,96111.00
2023-12-09T08:37:43.248Z,96102.00
2023-12-09T08:41:46.373Z,96102.00
2023-12-09T08:45:49.638Z,96095.00
2023-12-09T08:49:53.439Z,96106.00
2023-12-09T08:53:58.019Z,96107.00
2023-12-09T08:58:01.093Z,96111.00
2023-12-09T09:02:04.301Z,96103.00
2023-12-09T09:06:07.982Z,96108.00
2023-12-09T09:10:12.592Z,96117.00
2023-12-09T09:14:16.734Z,96111.00
2023-12-09T09:18:20.001Z,96113.00
2023-12-09T09:22:23.175Z,96111.00
2023-12-09T09:26:27.624Z,96103.00
2023-12-09T09:30:30.800Z,96104.00
2023-12-09T09:34:34.047Z,96094.00
2023-12-09T09:38:37.189Z,96093.00
2023-12-09T09:42:45.755Z,96085.00
2023-12-09T09:46:53.568Z,96081.00
2023-12-09T09:51:00.967Z,96077.00
2023-12-09T09:55:05.186Z,96067.00
2023-12-09T09:59:10.524Z,96056.00
2023-12-09T10:03:13.728Z,96047.00
2023-12-09T10:07:17.141Z,96031.00
2023-12-09T10:11:20.281Z,96046.00
2023-12-09T10:15:24.975Z,96026.00
2023-12-09T10:19:28.572Z,96027.00
2023-12-09T10:23:31.737Z,96011.00
2023-12-09T10:27:35.244Z,95996.00
2023-12-09T10:31:39.984Z,95998.00
2023-12-09T10:35:43.113Z,95976.00
2023-12-09T10:39:47.588Z,95974.00
2023-12-09T10:43:50.641Z,95960.00
2023-12-09T10:47:55.358Z,95947.00
2023-12-09T10:51:58.541Z,95956.00
2023-12-09T10:56:01.918Z,95949.00
2023-12-09T11:00:11.201Z,95952.00
2023-12-09T11:04:16.599Z,95950.00
2023-12-09T11:08:20.551Z,95954.00
2023-12-09T11:12:28.265Z,95952.00
2023-12-09T11:16:31.584Z,95948.00
2023-12-09T11:20:38.179Z,95944.00
2023-12-09T11:24:41.282Z,95940.00
2023-12-09T11:28:59.216Z,95934.00
2023-12-09T11:33:02.960Z,95942.00
2023-12-09T11:37:12.104Z,95936.00
2023-12-09T11:41:16.053Z,95927.00
2023-12-09T11:45:19.277Z,95916.00
2023-12-09T11:49:23.732Z,95903.00
2023-12-09T11:53:29.366Z,95900.00
2023-12-09T11:57:34.208Z,95883.00
2023-12-09T12:01:38.359Z,95872.00
2023-12-09T12:05:41.712Z,95863.00
2023-12-09T12:09:46.220Z,95842.00
2023-12-09T12:13:50.309Z,95831.00
2023-12-09T12:17:53.753Z,95830.00
2023-12-09T12:21:57.649Z,95836.00
2023-12-09T12:26:06.863Z,95819.00
2023-12-09T12:30:11.062Z,95819.00
2023-12-09T12:34:18.989Z,95798.00
2023-12-09T12:38:24.429Z,95790.00
2023-12-09T12:42:29.616Z,95783.00
2023-12-09T12:46:33.000Z,95780.00
2023-12-09T12:50:36.278Z,95769.00
2023-12-09T12:54:39.810Z,95754.00
2023-12-09T12:58:44.444Z,95730.00
2023-12-09T13:02:47.626Z,95716.00
2023-12-09T13:06:50.847Z,95727.00
2023-12-09T13:10:53.997Z,95705.00
2023-12-09T13:14:58.672Z,95693.00
2023-12-09T13:19:01.952Z,95682.00
2023-12-09T13:23:05.177Z,95675.00
2023-12-09T13:27:09.545Z,95661.00
2023-12-09T13:31:15.301Z,95654.00
2023-12-09T13:35:19.625Z,95652.00
2023-12-09T13:39:26.764Z,95644.00
2023-12-09T13:43:30.592Z,95638.00
2023-12-09T13:47:35.275Z,95639.00
2023-12-09T13:51:39.574Z,95632.00
2023-12-09T13:55:42.792Z,95634.00
2023-12-09T13:59:46.628Z,95615.00
2023-12-09T14:03:51.507Z,95623.00
2023-12-09T14:07:55.410Z,95613.00
2023-12-09T14:11:58.660Z,95612.00
2023-12-09T14:16:01.855Z,95607.00
2023-12-09T14:20:10.503Z,95604.00
2023-12-09T14:24:13.672Z,95606.00
2023-12-09T14:28:17.022Z,95605.00
2023-12-09T14:32:20.178Z,95602.00
2023-12-09T14:36:24.924Z,95604.00
2023-12-09T14:40:28.052Z,95599.00
2023-12-09T14:44:31.520Z,95609.00
2023-12-09T14:48:36.050Z,95588.00
2023-12-09T14:52:41.402Z,95581.00
2023-12-09T14:56:44.544Z,95561.00
2023-12-09T15:00:50.912Z,95554.00
2023-12-09T15:04:54.740Z,95542.00
2023-12-09T15:08:59.409Z,95532.00
2023-12-09T15:13:03.656Z,95533.00
2023-12-09T15:17:07.567Z,95528.00
2023-12-09T15:21:10.706Z,95513.00
2023-12-09T15:25:18.252Z,95505.00
2023-12-09T15:29:22.096Z,95499.00
2023-12-09T15:33:25.295Z,95489.00
2023-12-09T15:37:28.665Z,95458.00
2023-12-09T15:41:34.364Z,95421.00
2023-12-09T15:45:37.682Z,95403.00
2023-12-09T15:49:41.417Z,95389.00
2023-12-09T15:53:44.642Z,95385.00
2023-12-09T15:57:49.335Z,95381.00
2023-12-09T16:01:54.922Z,95393.00
2023-12-09T16:05:58.197Z,95387.00
2023-12-09T16:10:01.385Z,95383.00
2023-12-09T16:14:05.953Z,95366.00
2023-12-09T16:18:11.290Z,95357.00
2023-12-09T16:22:14.580Z,95348.00
2023-12-09T16:26:17.841Z,95336.00
2023-12-09T16:30:22.590Z,95325.00
2023-12-09T16:34:25.905Z,95329.00
2023-12-09T16:38:29.138Z,95324.00
2023-12-09T16:42:32.959Z,95311.00
2023-12-09T16:46:37.815Z,95301.00
2023-12-09T16:50:42.041Z,95299.00
2023-12-09T16:54:45.663Z,95300.00
2023-12-09T16:58:49.590Z,95292.00
2023-12-09T17:02:54.173Z,95284.00
2023-12-09T17:06:57.382Z,95274.00
2023-12-09T17:11:02.567Z,95259.00
2023-12-09T17:15:06.230Z,95260.00
2023-12-09T17:19:11.008Z,95257.00
2023-12-09T17:23:15.949Z,95238.00
2023-12-09T17:27:19.435Z,95228.00
2023-12-09T17:31:22.644Z,95216.00
2023-12-09T17:35:30.662Z,95195.00
2023-12-09T17:39:34.029Z,95161.00
2023-12-09T17:43:37.382Z,95140.00
2023-12-09T17:47:40.712Z,95129.00
2023-12-09T17:51:45.864Z,95118.00
2023-12-09T17:55:49.546Z,95108.00
2023-12-09T17:59:52.836Z,95108.00
2023-12-09T18:03:56.615Z,95102.00
2023-12-09T18:08:01.329Z,95108.00
2023-12-09T18:12:05.513Z,95093.00
2023-12-09T18:16:12.286Z,95077.00
2023-12-09T18:20:15.475Z,95052.00
2023-12-09T18:24:20.424Z,95029.00
2023-12-09T18:28:23.639Z,95007.00
2023-12-09T18:32:27.561Z,94993.00
2023-12-09T18:36:31.106Z,94988.00
2023-12-09T18:40:35.724Z,94978.00
2023-12-09T18:44:38.877Z,94984.00
2023-12-09T18:48:42.206Z,94973.00
2023-12-09T18:52:45.440Z,94957.00
2023-12-09T18:56:50.502Z,94972.00
2023-12-09T19:01:01.894Z,94938.00
2023-12-09T19:05:11.129Z,94934.00
2023-12-09T19:09:14.408Z,94928.00
2023-12-09T19:13:19.093Z,94904.00
2023-12-09T19:17:22.490Z,94901.00
2023-12-09T19:21:25.694Z,94900.00
2023-12-09T19:25:28.846Z,94894.00
2023-12-09T19:29:33.788Z,94887.00
2023-12-09T19:33:37.088Z,94879.00
2023-12-09T19:37:40.716Z,94873.00
2023-12-09T19:41:44.067Z,94872.00
2023-12-09T19:45:48.773Z,94874.00
2023-12-09T19:49:52.021Z,94884.00
2023-12-09T19:53:55.276Z,94884.00
2023-12-09T19:57:58.480Z,94884.00
2023-12-09T20:02:03.043Z,94874.00
2023-12-09T20:06:07.263Z,94869.00
2023-12-09T20:10:11.872Z,94862.00
2023-12-09T20:14:15.058Z,94840.00
2023-12-09T20:18:19.710Z,94826.00
2023-12-09T20:22:22.989Z,94823.00
2023-12-09T20:26:26.227Z,94810.00
2023-12-09T20:30:29.735Z,94804.00
2023-12-09T20:34:34.753Z,94794.00
2023-12-09T20:38:38.003Z,94785.00
2023-12-09T20:42:41.646Z,94785.00
2023-12-09T20:46:44.879Z,94797.00
2023-12-09T20:50:49.546Z,94799.00
2023-12-09T20:54:53.057Z,94797.00
2023-12-09T20:58:57.065Z,94778.00
2023-12-09T21:03:00.349Z,94787.00
2023-12-09T21:07:05.339Z,94779.00
2023-12-09T21:11:08.628Z,94779.00
2023-12-09T21:15:12.344Z,94780.00
2023-12-09T21:19:16.598Z,94770.00
2023-12-09T21:23:21.226Z,94755.00
2023-12-09T21:27:24.647Z,94740.00
2023-12-09T21:31:28.551Z,94736.00
2023-12-09T21:35:31.798Z,94743.00
2023-12-09T21:39:38.174Z,94748.00
2023-12-09T21:43:41.543Z,94747.00
2023-12-09T21:47:44.870Z,94759.00
2023-12-09T21:51:48.514Z,94753.00
2023-12-09T21:55:55.556Z,94762.00
2023-12-09T21:59:58.754Z,94763.00
2023-12-09T22:04:04.135Z,94786.00
2023-12-09T22:08:07.412Z,94766.00
2023-12-09T22:12:12.265Z,94748.00
2023-12-09T22:16:20.253Z,94761.00
2023-12-09T22:20:23.488Z,94764.00
2023-12-09T22:24:26.681Z,94770.00
2023-12-09T22:28:33.448Z,94775.00
2023-12-09T22:32:36.771Z,94787.00
2023-12-09T22:36:40.031Z,94796.00
2023-12-09T22:40:43.393Z,94791.00
2023-12-09T22:44:48.043Z,94786.00
2023-12-09T22:48:51.348Z,94791.00
2023-12-09T22:52:54.519Z,94793.00
2023-12-09T22:56:57.842Z,94787.00
2023-12-09T23:01:04.148Z,94775.00
2023-12-09T23:05:12.355Z,94789.00
2023-12-09T23:09:15.478Z,94791.00
2023-12-09T23:13:18.719Z,94785.00
2023-12-09T23:17:23.457Z,94791.00
2023-12-09T23:21:26.721Z,94798.00
2023-12-09T23:25:29.838Z,94801.00
2023-12-09T23:29:33.036Z,94804.00
2023-12-09T23:33:37.896Z,94797.00
2023-12-09T23:37:41.114Z,94804.00
2023-12-09T23:41:45.498Z,94805.00
2023-12-09T23:45:48.724Z,94804.00
2023-12-09T23:49:53.299Z,94805.00
2023-12-09T23:53:56.421Z,94796.00
2023-12-09T23:57:59.542Z,94797.00
